Time;durP1;ratioP1;P1;durP2;ratioP2;P2;SDS_P1;SDS_P2;PMS_P1;PMS_P2;Temp;Humidity;BMP_temperature;BMP_pressure;BME280_temperature;BME280_humidity;BME280_pressure;Samples;Min_cycle;Max_cycle;Signal;HPM_P1;HPM_P2
2021/07/20 00:00:21;;;;;;;;;;;;;;;19.12;65.07;100068.38;1714249;82;20146;-83
2021/07/20 00:02:48;;;;;;;;;;;;;;;19.17;65.40;100072.56;1712924;82;20121;-80
2021/07/20 00:05:16;;;;;;;;;;;;;;;19.08;65.48;100075.19;1709025;82;21018;-81
2021/07/20 00:07:42;;;;;;;;;;;;;;;18.84;66.93;100074.86;1684015;82;20199;-83
2021/07/20 00:10:12;;;;;;;;;;;;;;;18.86;66.84;100074.16;1707655;82;20214;-80
2021/07/20 00:12:38;;;;;;;;;;;;;;;18.97;66.25;100072.17;1697206;82;20182;-78
2021/07/20 00:15:05;;;;;;;;;;;;;;;18.94;66.11;100072.59;1705916;82;20165;-78
2021/07/20 00:17:31;;;;;;;;;;;;;;;18.82;66.13;100071.59;1713539;82;22047;-78
2021/07/20 00:19:56;;;;;;;;;;;;;;;18.82;66.25;100067.05;1701168;82;20134;-78
2021/07/20 00:22:22;;;;;;;;;;;;;;;18.80;66.37;100068.31;1711886;82;21622;-80
2021/07/20 00:24:47;;;;;;;;;;;;;;;18.81;66.44;100064.58;1699986;82;20178;-81
2021/07/20 00:27:13;;;;;;;;;;;;;;;18.83;66.12;100067.86;1710696;82;20133;-78
2021/07/20 00:29:39;;;;;;;;;;;;;;;18.73;66.46;100068.31;1717999;82;21800;-82
2021/07/20 00:32:05;;;;;;;;;;;;;;;18.72;66.20;100074.72;1701616;82;20147;-78
2021/07/20 00:34:31;;;;;;;;;;;;;;;18.63;66.50;100068.77;1718341;82;20467;-81
2021/07/20 00:36:56;;;;;;;;;;;;;;;18.56;66.92;100069.30;1709560;82;20146;-85
2021/07/20 00:39:22;;;;;;;;;;;;;;;18.47;67.16;100063.87;1697131;82;20480;-79
2021/07/20 00:41:47;;;;;;;;;;;;;;;18.42;67.55;100061.02;1706530;82;21090;-79
2021/07/20 00:44:13;;;;;;;;;;;;;;;18.36;67.91;100063.20;1715847;82;20150;-78
2021/07/20 00:46:38;;;;;;;;;;;;;;;18.25;68.46;100061.45;1708496;82;20186;-78
2021/07/20 00:49:04;;;;;;;;;;;;;;;18.19;68.60;100052.94;1703490;82;20424;-81
2021/07/20 00:51:30;;;;;;;;;;;;;;;18.19;69.10;100056.13;1707542;82;20155;-84
2021/07/20 00:53:55;;;;;;;;;;;;;;;18.09;69.36;100053.90;1706057;82;21093;-79
2021/07/20 00:56:21;;;;;;;;;;;;;;;18.02;69.58;100053.92;1708283;82;20154;-82
2021/07/20 00:58:46;;;;;;;;;;;;;;;18.11;69.34;100055.84;1712212;82;20186;-80
2021/07/20 01:01:12;;;;;;;;;;;;;;;18.04;69.43;100043.02;1714671;82;20508;-82
2021/07/20 01:03:38;;;;;;;;;;;;;;;17.98;70.02;100035.84;1713749;82;20190;-78
2021/07/20 01:06:04;;;;;;;;;;;;;;;18.03;70.04;100042.17;1706615;82;21974;-83
2021/07/20 01:08:30;;;;;;;;;;;;;;;18.04;70.11;100043.02;1706527;82;20148;-78
2021/07/20 01:10:57;;;;;;;;;;;;;;;18.06;70.17;100042.29;1704579;82;20187;-80
2021/07/20 01:13:22;;;;;;;;;;;;;;;17.99;70.16;100041.47;1715749;83;20163;-79
2021/07/20 01:15:48;;;;;;;;;;;;;;;17.94;70.41;100044.27;1706840;82;20171;-79
2021/07/20 01:18:13;;;;;;;;;;;;;;;17.98;70.48;100038.51;1704724;82;21845;-79
2021/07/20 01:20:39;;;;;;;;;;;;;;;17.91;70.55;100042.01;1682443;83;20118;-79
2021/07/20 01:23:11;;;;;;;;;;;;;;;17.79;71.02;100043.63;1704948;82;20541;-79
2021/07/20 01:25:35;;;;;;;;;;;;;;;17.74;71.73;100044.73;1704475;82;20244;-85
2021/07/20 01:28:03;;;;;;;;;;;;;;;17.68;71.69;100039.72;1709936;82;20211;-79
2021/07/20 01:30:29;;;;;;;;;;;;;;;17.64;71.85;100043.01;1706062;82;21346;-79
2021/07/20 01:32:55;;;;;;;;;;;;;;;17.48;72.71;100041.05;1695139;82;20194;-81
2021/07/20 01:35:21;;;;;;;;;;;;;;;17.50;72.72;100034.98;1708999;82;20712;-79
2021/07/20 01:37:46;;;;;;;;;;;;;;;17.40;73.31;100034.55;1710771;82;20136;-80
2021/07/20 01:40:12;;;;;;;;;;;;;;;17.37;73.44;100030.95;1703712;82;20150;-80
2021/07/20 01:42:38;;;;;;;;;;;;;;;17.31;74.08;100037.10;1673506;83;21110;-79
2021/07/20 01:45:05;;;;;;;;;;;;;;;17.34;74.10;100023.35;1707788;82;20197;-79
2021/07/20 01:47:30;;;;;;;;;;;;;;;17.37;73.85;100024.28;1714205;82;20170;-79
2021/07/20 01:49:56;;;;;;;;;;;;;;;17.40;73.64;100027.88;1720241;82;20430;-79
2021/07/20 01:52:23;;;;;;;;;;;;;;;17.41;73.44;100023.67;1710212;82;20269;-79
2021/07/20 01:54:48;;;;;;;;;;;;;;;17.44;73.56;100030.45;1716158;82;21019;-82
2021/07/20 01:57:15;;;;;;;;;;;;;;;17.40;73.40;100037.22;1707782;82;20142;-83
2021/07/20 01:59:41;;;;;;;;;;;;;;;17.42;73.49;100032.52;1704671;82;20132;-81
2021/07/20 02:02:16;;;;;;;;;;;;;;;17.47;73.36;100027.37;1709681;82;20170;-87
2021/07/20 02:04:45;;;;;;;;;;;;;;;17.53;73.11;100031.91;1671547;83;20172;-81
2021/07/20 02:09:49;;;;;;;;;;;;;;;17.47;73.96;100032.72;1702786;82;20213;-79
2021/07/20 02:12:17;;;;;;;;;;;;;;;17.46;73.56;100031.06;1708650;82;20326;-78
2021/07/20 02:14:43;;;;;;;;;;;;;;;17.33;74.11;100037.22;1703010;82;20256;-79
2021/07/20 02:17:12;;;;;;;;;;;;;;;17.19;74.74;100039.05;1713120;82;20168;-79
2021/07/20 02:19:47;;;;;;;;;;;;;;;17.12;75.11;100037.38;1719893;82;21106;-80
2021/07/20 02:22:17;;;;;;;;;;;;;;;17.17;75.00;100029.09;1708735;82;20165;-79
2021/07/20 02:24:43;;;;;;;;;;;;;;;17.25;75.05;100028.08;1717979;82;20167;-78
2021/07/20 02:27:08;;;;;;;;;;;;;;;17.25;74.62;100033.94;1702552;83;20678;-77
2021/07/20 02:29:34;;;;;;;;;;;;;;;17.28;74.84;100030.87;1710574;82;20122;-78
2021/07/20 02:32:01;;;;;;;;;;;;;;;17.29;74.76;100030.66;1711544;82;21047;-79
2021/07/20 02:34:28;;;;;;;;;;;;;;;17.27;74.84;100031.88;1709071;82;20442;-79
2021/07/20 02:36:54;;;;;;;;;;;;;;;17.26;74.89;100032.90;1696584;82;20488;-87
2021/07/20 02:39:20;;;;;;;;;;;;;;;17.39;74.62;100035.59;1713653;82;20630;-79
2021/07/20 02:41:46;;;;;;;;;;;;;;;17.41;74.30;100032.20;1687282;83;20222;-80
2021/07/20 02:44:12;;;;;;;;;;;;;;;17.46;74.40;100045.75;1714349;82;21091;-80
2021/07/20 02:46:38;;;;;;;;;;;;;;;17.46;74.71;100044.41;1715571;82;20810;-78
2021/07/20 02:49:03;;;;;;;;;;;;;;;17.52;74.27;100054.28;1696989;82;20199;-79
2021/07/20 02:51:29;;;;;;;;;;;;;;;17.50;74.16;100045.66;1704337;82;20191;-80
2021/07/20 02:53:57;;;;;;;;;;;;;;;17.47;74.34;100050.07;1705381;82;20695;-83
2021/07/20 02:56:23;;;;;;;;;;;;;;;17.50;74.41;100056.34;1699608;82;22025;-81
2021/07/20 02:58:49;;;;;;;;;;;;;;;17.46;74.52;100059.09;1675679;82;20150;-79
2021/07/20 03:01:15;;;;;;;;;;;;;;;17.47;74.55;100059.42;1654717;83;20180;-78
2021/07/20 03:03:41;;;;;;;;;;;;;;;17.52;74.45;100059.62;1715061;82;20182;-87
2021/07/20 03:06:07;;;;;;;;;;;;;;;17.52;74.49;100072.16;1714639;82;20763;-78
2021/07/20 03:08:34;;;;;;;;;;;;;;;17.51;74.21;100070.50;1704183;82;21049;-80
2021/07/20 03:11:02;;;;;;;;;;;;;;;17.44;74.81;100069.69;1705156;82;20130;-79
2021/07/20 03:13:27;;;;;;;;;;;;;;;17.41;74.82;100070.91;1709011;82;20177;-81
2021/07/20 03:15:53;;;;;;;;;;;;;;;17.51;74.71;100071.34;1707156;82;21170;-86
2021/07/20 03:18:19;;;;;;;;;;;;;;;17.50;74.58;100073.69;1678445;83;20147;-78
2021/07/20 03:20:44;;;;;;;;;;;;;;;17.53;74.68;100070.62;1712907;82;21110;-79
2021/07/20 03:23:10;;;;;;;;;;;;;;;17.57;74.58;100067.86;1709784;82;20158;-81
2021/07/20 03:25:37;;;;;;;;;;;;;;;17.62;74.36;100074.41;1711087;82;20111;-78
2021/07/20 03:28:04;;;;;;;;;;;;;;;17.70;74.08;100070.23;1699917;82;20889;-82
2021/07/20 03:30:30;;;;;;;;;;;;;;;17.68;74.01;100073.59;1691903;82;20479;-78
2021/07/20 03:32:56;;;;;;;;;;;;;;;17.63;74.32;100073.40;1709420;82;22280;-82
2021/07/20 03:35:21;;;;;;;;;;;;;;;17.50;74.67;100073.69;1715063;82;20126;-84
2021/07/20 03:37:47;;;;;;;;;;;;;;;17.48;74.92;100070.41;1700442;83;20751;-84
2021/07/20 03:40:13;;;;;;;;;;;;;;;17.41;75.32;100068.23;1676079;82;20157;-78
2021/07/20 03:42:39;;;;;;;;;;;;;;;17.46;75.26;100070.30;1717102;82;20498;-78
2021/07/20 03:45:05;;;;;;;;;;;;;;;17.39;75.61;100067.63;1710008;82;21103;-78
2021/07/20 03:47:31;;;;;;;;;;;;;;;17.46;75.44;100068.44;1709952;82;20452;-81
2021/07/20 03:49:57;;;;;;;;;;;;;;;17.44;75.43;100069.16;1707374;82;20127;-79
2021/07/20 03:52:22;;;;;;;;;;;;;;;17.46;75.68;100067.63;1706090;82;20159;-87
2021/07/20 03:54:48;;;;;;;;;;;;;;;17.52;75.45;100067.63;1716682;82;20123;-78
2021/07/20 03:57:17;;;;;;;;;;;;;;;17.46;75.76;100071.11;1717541;82;21081;-79
2021/07/20 03:59:42;;;;;;;;;;;;;;;17.51;75.78;100073.17;1708089;82;20154;-84
2021/07/20 04:02:07;;;;;;;;;;;;;;;17.53;75.62;100067.14;1704991;82;20125;-78
2021/07/20 04:04:35;;;;;;;;;;;;;;;17.52;75.75;100074.30;1710202;82;20672;-79
2021/07/20 04:07:01;;;;;;;;;;;;;;;17.51;75.90;100071.84;1694195;82;20320;-79
2021/07/20 04:09:26;;;;;;;;;;;;;;;17.51;76.19;100069.16;1710150;82;21165;-83
2021/07/20 04:11:52;;;;;;;;;;;;;;;17.58;76.17;100068.67;1709087;82;20252;-79
2021/07/20 04:14:18;;;;;;;;;;;;;;;17.70;75.95;100075.05;1708570;82;20213;-79
2021/07/20 04:16:43;;;;;;;;;;;;;;;17.74;75.76;100082.13;1704382;82;21327;-78
2021/07/20 04:19:09;;;;;;;;;;;;;;;17.81;75.79;100073.61;1714941;82;20142;-78
2021/07/20 04:21:37;;;;;;;;;;;;;;;17.85;75.50;100080.20;1703896;82;21153;-80
2021/07/20 04:24:07;;;;;;;;;;;;;;;17.90;75.58;100079.09;1709994;82;20943;-78
2021/07/20 04:26:32;;;;;;;;;;;;;;;17.81;75.83;100083.48;1714932;82;20196;-79
2021/07/20 04:28:58;;;;;;;;;;;;;;;17.89;75.73;100087.31;1713574;82;20455;-78
2021/07/20 04:31:24;;;;;;;;;;;;;;;17.94;75.80;100087.02;1714717;82;20142;-79
2021/07/20 04:33:50;;;;;;;;;;;;;;;18.00;75.86;100085.34;1691136;83;21056;-85
2021/07/20 04:36:15;;;;;;;;;;;;;;;18.02;75.88;100083.80;1706181;83;20231;-78
2021/07/20 04:38:41;;;;;;;;;;;;;;;18.19;75.41;100082.86;1706705;82;20168;-85
2021/07/20 04:41:07;;;;;;;;;;;;;;;18.24;75.32;100089.23;1710739;82;20761;-81
2021/07/20 04:43:34;;;;;;;;;;;;;;;18.30;75.01;100087.07;1711627;82;20161;-85
2021/07/20 04:45:59;;;;;;;;;;;;;;;18.32;74.96;100098.05;1712424;83;21107;-81
2021/07/20 04:48:25;;;;;;;;;;;;;;;18.37;74.80;100092.92;1703887;83;20193;-81
2021/07/20 04:50:52;;;;;;;;;;;;;;;18.42;74.81;100093.11;1706023;82;20158;-80
2021/07/20 04:53:18;;;;;;;;;;;;;;;18.51;74.85;100089.17;1703981;82;20215;-79
2021/07/20 04:55:45;;;;;;;;;;;;;;;18.60;74.66;100085.24;1704456;82;20269;-79
2021/07/20 04:58:11;;;;;;;;;;;;;;;18.64;74.76;100086.48;1708759;83;21058;-78
2021/07/20 05:00:36;;;;;;;;;;;;;;;18.76;74.44;100083.95;1683513;82;20848;-79
2021/07/20 05:03:03;;;;;;;;;;;;;;;18.98;73.51;100090.38;1713467;82;20142;-82
2021/07/20 05:05:33;;;;;;;;;;;;;;;18.92;74.11;100089.36;1715689;82;20228;-78
2021/07/20 05:07:59;;;;;;;;;;;;;;;19.01;73.90;100097.45;1705712;82;20209;-89
2021/07/20 05:10:25;;;;;;;;;;;;;;;19.11;73.74;100090.81;1698703;82;21176;-78
2021/07/20 05:12:51;;;;;;;;;;;;;;;19.19;73.49;100101.30;1711038;82;20230;-80
2021/07/20 05:15:17;;;;;;;;;;;;;;;19.21;73.53;100107.78;1700499;82;20257;-78
2021/07/20 05:17:43;;;;;;;;;;;;;;;19.31;72.87;100113.47;1706544;82;20192;-82
2021/07/20 05:20:09;;;;;;;;;;;;;;;19.44;72.59;100108.58;1707237;82;20126;-84
2021/07/20 05:22:35;;;;;;;;;;;;;;;19.56;72.44;100106.85;1712163;82;21026;-78
2021/07/20 05:25:05;;;;;;;;;;;;;;;19.53;72.68;100104.60;1702634;82;20452;-82
2021/07/20 05:27:45;;;;;;;;;;;;;;;19.46;73.04;100111.85;1711236;82;20151;-78
2021/07/20 05:30:11;;;;;;;;;;;;;;;19.45;73.20;100105.69;1709335;82;20750;-82
2021/07/20 05:32:39;;;;;;;;;;;;;;;19.43;73.10;100101.56;1704554;82;20169;-77
2021/07/20 05:35:05;;;;;;;;;;;;;;;19.60;73.21;100104.02;1697877;83;21163;-81
2021/07/20 05:37:34;;;;;;;;;;;;;;;19.73;72.65;100097.73;1674015;82;20600;-78
2021/07/20 05:39:58;;;;;;;;;;;;;;;19.87;72.30;100097.14;1710229;83;20153;-81
2021/07/20 05:42:23;;;;;;;;;;;;;;;20.03;71.52;100099.29;1710247;82;20119;-79
2021/07/20 05:44:49;;;;;;;;;;;;;;;20.06;71.37;100103.40;1702083;82;20451;-79
2021/07/20 05:47:15;;;;;;;;;;;;;;;20.11;71.53;100096.04;1707294;82;22770;-78
2021/07/20 05:49:41;;;;;;;;;;;;;;;20.17;71.31;100096.50;1697774;82;20494;-81
2021/07/20 05:52:07;;;;;;;;;;;;;;;20.29;71.03;100088.03;1699544;82;20205;-78
2021/07/20 05:54:33;;;;;;;;;;;;;;;20.34;70.75;100093.53;1714703;82;20470;-78
2021/07/20 05:56:58;;;;;;;;;;;;;;;20.39;70.52;100089.66;1709560;82;20171;-80
2021/07/20 05:59:24;;;;;;;;;;;;;;;20.48;70.12;100083.98;1699653;82;21101;-82
2021/07/20 06:01:51;;;;;;;;;;;;;;;20.36;70.80;100091.44;1710861;82;20965;-87
2021/07/20 06:04:17;;;;;;;;;;;;;;;20.40;71.13;100089.97;1711082;82;20175;-79
2021/07/20 06:06:43;;;;;;;;;;;;;;;20.47;71.23;100087.73;1704466;82;20140;-84
2021/07/20 06:09:09;;;;;;;;;;;;;;;20.56;71.25;100091.77;1712071;82;20229;-80
2021/07/20 06:11:34;;;;;;;;;;;;;;;20.68;70.54;100090.50;1710053;82;21239;-79
2021/07/20 06:14:00;;;;;;;;;;;;;;;20.63;70.45;100092.48;1718236;82;20969;-78
2021/07/20 06:16:26;;;;;;;;;;;;;;;20.77;69.92;100093.19;1715011;82;20152;-78
2021/07/20 06:18:51;;;;;;;;;;;;;;;20.76;70.19;100097.74;1704315;82;20165;-77
2021/07/20 06:21:18;;;;;;;;;;;;;;;20.84;69.92;100095.81;1718541;82;20137;-78
2021/07/20 06:23:46;;;;;;;;;;;;;;;21.01;68.70;100091.45;1708314;82;21061;-78
2021/07/20 06:26:12;;;;;;;;;;;;;;;21.16;68.34;100091.87;1721653;82;20642;-77
2021/07/20 06:28:37;;;;;;;;;;;;;;;21.45;67.59;100088.03;1710086;82;20119;-89
2021/07/20 06:31:03;;;;;;;;;;;;;;;21.35;67.43;100089.14;1717954;82;20724;-79
2021/07/20 06:33:30;;;;;;;;;;;;;;;21.55;67.34;100085.34;1708204;82;20379;-76
2021/07/20 06:35:56;;;;;;;;;;;;;;;21.52;67.64;100089.34;1705006;82;20633;-77
2021/07/20 06:38:22;;;;;;;;;;;;;;;21.59;67.36;100087.87;1708561;82;20188;-77
2021/07/20 06:40:49;;;;;;;;;;;;;;;21.56;64.88;100092.38;1704066;82;20162;-76
2021/07/20 06:43:15;;;;;;;;;;;;;;;21.45;64.84;100089.38;1711967;82;20106;-78
2021/07/20 06:45:42;;;;;;;;;;;;;;;21.72;64.63;100098.44;1710282;82;21014;-85
2021/07/20 06:48:13;;;;;;;;;;;;;;;21.72;64.60;100097.09;1713896;82;21209;-77
2021/07/20 06:50:38;;;;;;;;;;;;;;;21.83;64.28;100096.28;1714949;82;20144;-79
2021/07/20 06:53:04;;;;;;;;;;;;;;;21.71;64.52;100092.75;1708512;82;20213;-76
2021/07/20 06:55:29;;;;;;;;;;;;;;;21.89;64.08;100094.52;1718269;82;20337;-76
2021/07/20 06:57:55;;;;;;;;;;;;;;;22.00;64.08;100096.41;1710762;82;20150;-78
2021/07/20 07:00:20;;;;;;;;;;;;;;;21.98;61.53;100099.03;1710902;82;21096;-77
2021/07/20 07:02:49;;;;;;;;;;;;;;;21.95;64.70;100095.46;1711080;82;20136;-78
2021/07/20 07:05:16;;;;;;;;;;;;;;;21.91;65.98;100102.34;1701807;82;20188;-78
2021/07/20 07:07:42;;;;;;;;;;;;;;;22.04;64.95;100096.76;1714757;83;20163;-76
2021/07/20 07:10:07;;;;;;;;;;;;;;;21.97;64.39;100100.08;1720591;82;20163;-81
2021/07/20 07:12:34;;;;;;;;;;;;;;;22.04;64.36;100094.06;1705139;82;21167;-76
2021/07/20 07:15:01;;;;;;;;;;;;;;;22.12;63.39;100092.90;1698729;82;20155;-80
2021/07/20 07:17:26;;;;;;;;;;;;;;;22.07;63.30;100098.17;1714834;82;20173;-77
2021/07/20 07:19:52;;;;;;;;;;;;;;;22.14;62.61;100094.82;1706933;82;20435;-78
2021/07/20 07:22:18;;;;;;;;;;;;;;;22.17;62.83;100098.39;1696662;82;20178;-78
2021/07/20 07:24:44;;;;;;;;;;;;;;;22.28;62.31;100096.75;1698451;82;21044;-77
2021/07/20 07:27:09;;;;;;;;;;;;;;;22.29;61.84;100098.39;1714469;82;20251;-81
2021/07/20 07:29:35;;;;;;;;;;;;;;;22.15;61.26;100097.28;1709755;82;20174;-77
2021/07/20 07:32:01;;;;;;;;;;;;;;;22.12;61.23;100099.09;1713233;82;20451;-78
2021/07/20 07:34:26;;;;;;;;;;;;;;;22.11;61.80;100094.78;1700198;82;20154;-76
2021/07/20 07:36:52;;;;;;;;;;;;;;;22.09;62.35;100090.14;1707538;82;21128;-76
2021/07/20 07:39:19;;;;;;;;;;;;;;;22.29;61.73;100090.32;1701767;82;20483;-78
2021/07/20 07:41:46;;;;;;;;;;;;;;;22.36;60.54;100093.75;1690628;83;20208;-81
2021/07/20 07:44:12;;;;;;;;;;;;;;;22.36;60.61;100095.09;1679599;82;20157;-76
2021/07/20 07:46:40;;;;;;;;;;;;;;;22.40;60.41;100090.36;1711068;82;20187;-87
2021/07/20 07:49:05;;;;;;;;;;;;;;;22.29;60.66;100090.32;1708604;82;21125;-78
2021/07/20 07:51:31;;;;;;;;;;;;;;;22.39;60.51;100082.52;1704265;82;20447;-76
2021/07/20 07:53:58;;;;;;;;;;;;;;;22.51;60.60;100090.05;1698783;82;20153;-77
2021/07/20 07:56:27;;;;;;;;;;;;;;;22.47;60.01;100094.26;1709072;82;20163;-77
2021/07/20 07:58:54;;;;;;;;;;;;;;;22.63;59.35;100093.23;1710431;82;20608;-81
2021/07/20 08:01:20;;;;;;;;;;;;;;;22.57;58.36;100095.80;1696703;83;22079;-76
2021/07/20 08:03:45;;;;;;;;;;;;;;;22.72;58.24;100093.16;1711086;82;20130;-89
2021/07/20 08:06:19;;;;;;;;;;;;;;;22.86;57.94;100090.48;1706710;82;20459;-77
2021/07/20 08:08:38;;;;;;;;;;;;;;;22.89;57.64;100092.69;1708664;82;20556;-81
2021/07/20 08:11:04;;;;;;;;;;;;;;;23.24;56.96;100086.39;1714318;82;20141;-78
2021/07/20 08:13:30;;;;;;;;;;;;;;;23.41;56.34;100099.06;1712530;82;21098;-80
2021/07/20 08:15:55;;;;;;;;;;;;;;;23.38;56.42;100094.96;1712325;82;20181;-79
2021/07/20 08:18:22;;;;;;;;;;;;;;;23.28;55.86;100096.15;1716336;82;20211;-87
2021/07/20 08:20:52;;;;;;;;;;;;;;;23.37;56.21;100101.94;1712442;82;20198;-78
2021/07/20 08:23:16;;;;;;;;;;;;;;;23.43;53.88;100111.75;1709252;82;20100;-86
2021/07/20 08:25:43;;;;;;;;;;;;;;;23.42;53.45;100100.70;1676649;83;21163;-78
2021/07/20 08:28:27;;;;;;;;;;;;;;;23.52;53.60;100110.30;1712930;82;21259;-92
2021/07/20 08:30:56;;;;;;;;;;;;;;;23.70;54.01;100103.07;1714403;82;20140;-90
2021/07/20 08:33:21;;;;;;;;;;;;;;;23.86;53.52;100104.97;1704590;82;20955;-81
2021/07/20 08:35:47;;;;;;;;;;;;;;;23.79;55.48;100107.00;1717048;82;20519;-85
2021/07/20 08:38:13;;;;;;;;;;;;;;;23.50;56.96;100113.78;1709022;82;21080;-79
2021/07/20 08:40:51;;;;;;;;;;;;;;;23.42;56.58;100110.95;1691075;83;20635;-87
2021/07/20 08:43:24;;;;;;;;;;;;;;;23.56;55.93;100114.70;1701184;82;20182;-79
2021/07/20 08:46:02;;;;;;;;;;;;;;;23.63;55.66;100108.09;1715767;82;20190;-83
2021/07/20 08:48:36;;;;;;;;;;;;;;;23.59;56.68;100104.23;1712533;82;20175;-79
2021/07/20 08:51:07;;;;;;;;;;;;;;;23.66;56.71;100107.60;1716438;82;22644;-79
2021/07/20 08:53:41;;;;;;;;;;;;;;;23.58;56.91;100101.24;1713930;83;20182;-81
2021/07/20 08:56:07;;;;;;;;;;;;;;;23.41;56.85;100105.26;1657167;82;20182;-79
2021/07/20 08:58:40;;;;;;;;;;;;;;;23.38;56.10;100099.55;1707372;82;20775;-79
2021/07/20 09:01:31;;;;;;;;;;;;;;;23.46;55.05;100091.05;1707679;82;20172;-80
2021/07/20 09:04:02;;;;;;;;;;;;;;;23.64;54.83;100092.72;1703813;82;21269;-80
2021/07/20 09:06:51;;;;;;;;;;;;;;;23.90;55.00;100092.64;1706634;83;20157;-86
2021/07/20 09:09:25;;;;;;;;;;;;;;;24.09;54.10;100096.42;1708956;82;20168;-89
2021/07/20 09:12:01;;;;;;;;;;;;;;;24.22;53.01;100098.76;1703224;82;20721;-78
2021/07/20 09:14:33;;;;;;;;;;;;;;;24.26;53.02;100090.46;1718994;82;20162;-78
2021/07/20 09:17:08;;;;;;;;;;;;;;;24.45;52.34;100095.57;1704467;82;21914;-79
2021/07/20 09:19:43;;;;;;;;;;;;;;;24.26;52.06;100091.00;1714830;82;20206;-80
2021/07/20 09:22:15;;;;;;;;;;;;;;;24.14;51.73;100091.09;1707152;82;20232;-80
2021/07/20 09:24:55;;;;;;;;;;;;;;;24.10;51.62;100084.03;1713613;82;20207;-88
2021/07/20 09:27:30;;;;;;;;;;;;;;;24.13;51.80;100082.70;1715889;82;20174;-78
2021/07/20 09:29:55;;;;;;;;;;;;;;;24.37;51.07;100080.08;1718910;82;21108;-79
2021/07/20 09:32:46;;;;;;;;;;;;;;;24.57;51.35;100078.75;1703988;82;20220;-77
2021/07/20 09:35:18;;;;;;;;;;;;;;;24.66;50.35;100081.84;1707602;82;20201;-78
2021/07/20 09:38:07;;;;;;;;;;;;;;;24.97;49.71;100076.77;1708397;82;20166;-89
2021/07/20 09:40:59;;;;;;;;;;;;;;;24.97;48.82;100076.26;1693897;83;20183;-80
2021/07/20 09:43:36;;;;;;;;;;;;;;;25.13;49.01;100069.66;1676645;83;21626;-81
2021/07/20 09:46:03;;;;;;;;;;;;;;;25.29;48.44;100063.34;1712249;82;20477;-79
2021/07/20 09:48:31;;;;;;;;;;;;;;;25.29;47.84;100065.25;1712983;82;20536;-80
2021/07/20 09:51:13;;;;;;;;;;;;;;;25.06;48.28;100070.68;1713228;82;20259;-79
2021/07/20 09:54:02;;;;;;;;;;;;;;;25.20;49.12;100059.45;1712941;82;20205;-78
2021/07/20 09:56:43;;;;;;;;;;;;;;;24.99;49.31;100059.25;1712209;82;21127;-78
2021/07/20 09:59:41;;;;;;;;;;;;;;;24.65;49.41;100054.00;1712681;82;20618;-85
2021/07/20 10:02:10;;;;;;;;;;;;;;;24.88;49.55;100054.81;1705113;82;20121;-77
2021/07/20 10:04:39;;;;;;;;;;;;;;;24.87;47.23;100062.62;1716819;82;20170;-81
2021/07/20 10:07:08;;;;;;;;;;;;;;;24.79;47.51;100056.33;1712738;82;20143;-89
2021/07/20 10:09:52;;;;;;;;;;;;;;;24.70;46.87;100056.79;1715626;82;21160;-78
2021/07/20 10:12:41;;;;;;;;;;;;;;;24.78;47.16;100056.88;1713133;82;20139;-87
2021/07/20 10:15:10;;;;;;;;;;;;;;;25.01;46.79;100057.09;1708732;82;20160;-77
2021/07/20 10:17:50;;;;;;;;;;;;;;;24.98;46.65;100060.31;1701194;82;20184;-78
2021/07/20 10:20:20;;;;;;;;;;;;;;;25.21;46.86;100052.98;1707219;82;20203;-85
2021/07/20 10:23:00;;;;;;;;;;;;;;;25.45;46.45;100052.16;1713689;82;21199;-77
2021/07/20 10:25:44;;;;;;;;;;;;;;;25.61;46.16;100055.25;1711390;82;20167;-78
2021/07/20 10:28:30;;;;;;;;;;;;;;;25.31;45.06;100049.06;1688535;83;33782;-77
2021/07/20 10:31:11;;;;;;;;;;;;;;;25.53;44.78;100042.76;1714971;82;20177;-77
2021/07/20 10:33:56;;;;;;;;;;;;;;;25.50;44.48;100051.39;1716260;82;20199;-77
2021/07/20 10:36:24;;;;;;;;;;;;;;;25.67;43.88;100033.13;1711926;83;21192;-77
2021/07/20 10:38:55;;;;;;;;;;;;;;;25.97;44.52;100044.70;1708371;82;20271;-77
2021/07/20 10:41:36;;;;;;;;;;;;;;;25.92;42.63;100037.08;1705195;82;20185;-77
2021/07/20 10:44:04;;;;;;;;;;;;;;;25.79;43.34;100040.52;1708010;82;20459;-79
2021/07/20 10:46:31;;;;;;;;;;;;;;;25.50;45.41;100035.16;1715961;82;20140;-77
2021/07/20 10:48:59;;;;;;;;;;;;;;;25.24;46.20;100041.66;1705643;82;21880;-82
2021/07/20 10:51:26;;;;;;;;;;;;;;;25.33;46.02;100040.15;1697881;83;20210;-77
2021/07/20 10:54:00;;;;;;;;;;;;;;;25.50;45.31;100044.08;1701024;82;20223;-81
2021/07/20 10:56:36;;;;;;;;;;;;;;;25.62;45.95;100031.71;1656991;83;20210;-81
2021/07/20 10:59:20;;;;;;;;;;;;;;;25.52;44.29;100033.00;1706892;82;20470;-80
2021/07/20 11:01:58;;;;;;;;;;;;;;;25.59;44.61;100025.47;1705861;82;22019;-79
2021/07/20 11:04:53;;;;;;;;;;;;;;;25.63;43.47;100027.95;1703615;82;21161;-91
2021/07/20 11:07:48;;;;;;;;;;;;;;;25.68;41.82;100015.80;1702097;82;20166;-75
2021/07/20 11:10:18;;;;;;;;;;;;;;;25.77;42.44;100029.12;1699451;82;20193;-79
2021/07/20 11:12:45;;;;;;;;;;;;;;;25.56;45.11;100020.61;1709398;82;20198;-83
2021/07/20 11:15:11;;;;;;;;;;;;;;;25.42;46.53;100029.15;1710546;83;21014;-79
2021/07/20 11:17:38;;;;;;;;;;;;;;;25.31;46.87;100017.98;1701221;82;20512;-77
2021/07/20 11:20:10;;;;;;;;;;;;;;;25.17;46.62;100024.83;1711776;82;20127;-80
2021/07/20 11:22:37;;;;;;;;;;;;;;;25.21;45.91;100015.14;1708784;82;20733;-78
2021/07/20 11:25:05;;;;;;;;;;;;;;;25.56;45.13;100019.26;1705397;82;20757;-79
2021/07/20 11:27:32;;;;;;;;;;;;;;;25.83;44.10;100018.36;1711285;82;21204;-80
2021/07/20 11:29:58;;;;;;;;;;;;;;;26.01;43.63;100019.31;1707544;82;20216;-80
2021/07/20 11:32:26;;;;;;;;;;;;;;;25.99;42.98;100007.91;1701566;82;20174;-79
2021/07/20 11:35:04;;;;;;;;;;;;;;;25.93;43.33;100006.22;1693782;82;20170;-81
2021/07/20 11:37:35;;;;;;;;;;;;;;;26.06;43.35;100007.16;1704272;82;20179;-80
2021/07/20 11:40:08;;;;;;;;;;;;;;;26.27;44.10;100009.95;1705803;82;21161;-79
2021/07/20 11:42:49;;;;;;;;;;;;;;;26.23;43.76;100015.63;1677358;83;20211;-80
2021/07/20 11:45:15;;;;;;;;;;;;;;;26.21;44.48;100013.70;1706033;83;20195;-78
2021/07/20 11:48:08;;;;;;;;;;;;;;;26.35;44.14;100014.84;1706938;82;20118;-79
2021/07/20 11:50:52;;;;;;;;;;;;;;;26.46;43.86;100016.53;1704294;83;20160;-80
2021/07/20 11:53:50;;;;;;;;;;;;;;;26.63;43.48;100008.72;1703745;82;21125;-81
2021/07/20 11:56:25;;;;;;;;;;;;;;;26.60;42.84;100016.02;1646399;85;20203;-79
2021/07/20 11:58:57;;;;;;;;;;;;;;;26.58;41.85;100010.06;1696011;82;20209;-85
2021/07/20 12:01:29;;;;;;;;;;;;;;;26.83;43.55;100010.17;1671403;83;20894;-79
2021/07/20 12:04:23;;;;;;;;;;;;;;;27.10;43.58;100005.58;1698486;83;20187;-79
2021/07/20 12:07:09;;;;;;;;;;;;;;;27.31;42.02;100009.13;1691858;83;21152;-79
2021/07/20 12:10:13;;;;;;;;;;;;;;;27.52;41.16;100009.42;1694858;83;20222;-80
2021/07/20 12:12:53;;;;;;;;;;;;;;;27.50;40.85;100010.25;1695303;83;20167;-89
2021/07/20 12:15:23;;;;;;;;;;;;;;;27.49;40.93;100014.03;1698125;83;20219;-79
2021/07/20 12:17:48;;;;;;;;;;;;;;;27.51;41.67;100014.56;1690615;82;20181;-80
2021/07/20 12:20:15;;;;;;;;;;;;;;;27.27;41.91;100014.81;1701350;82;21088;-89
2021/07/20 12:22:52;;;;;;;;;;;;;;;27.43;41.89;100006.98;1688513;83;20233;-78
2021/07/20 12:25:19;;;;;;;;;;;;;;;27.57;42.12;100007.25;1692258;83;20174;-83
2021/07/20 12:27:46;;;;;;;;;;;;;;;27.58;42.33;100010.24;1699792;83;20882;-82
2021/07/20 12:30:14;;;;;;;;;;;;;;;27.57;41.38;100005.34;1700669;82;20179;-80
2021/07/20 12:32:42;;;;;;;;;;;;;;;27.62;41.07;100011.86;1692668;83;21114;-84
2021/07/20 12:35:10;;;;;;;;;;;;;;;27.61;41.32;100007.51;1696528;83;20452;-84
2021/07/20 12:37:39;;;;;;;;;;;;;;;27.52;39.31;100008.06;1694594;83;20131;-86
2021/07/20 12:40:07;;;;;;;;;;;;;;;27.61;40.09;100011.58;1696044;82;20538;-83
2021/07/20 12:42:37;;;;;;;;;;;;;;;27.55;39.20;100006.17;1695588;83;20180;-80
2021/07/20 12:45:08;;;;;;;;;;;;;;;27.61;38.97;100009.70;1701505;82;21084;-85
2021/07/20 12:47:44;;;;;;;;;;;;;;;27.66;38.81;100000.73;1692612;82;20195;-82